This is the latest recevied weather packets stored in our database for station/object DL1VED. If no packets are shown the sender has not sent any weather packets the latest 10 day(s).
| Time | Temp. | Humidity | Pressure | Rain* | Wind** | Luminosity | Snow |
|---|---|---|---|---|---|---|---|
| 1777821250 | 16.11° C | 66% | 1013.1 hPa | 0.25 mm | - | - | - |
| 1777820350 | 16.67° C | 65% | 1013.2 hPa | 0.25 mm | - | - | - |
| 1777819450 | 16.67° C | 65% | 1013.3 hPa | 0.25 mm | - | - | - |
| 1777818550 | 16.67° C | 62% | 1013.3 hPa | 0 mm | - | - | - |
| 1777817650 | 17.78° C | 56% | 1013.3 hPa | 0 mm | - | - | - |
| 1777816750 | 19.44° C | 47% | 1013.2 hPa | 0 mm | - | - | - |
| 1777815850 | 19.44° C | 44% | 1013.1 hPa | 0 mm | - | - | - |
| 1777814950 | 20° C | 41% | 1013 hPa | 0 mm | - | - | - |
| 1777814050 | 20° C | 40% | 1012.9 hPa | 0 mm | - | - | - |
| 1777813150 | 20.56° C | 39% | 1012.9 hPa | 0 mm | - | - | - |
| 1777812250 | 21.11° C | 40% | 1013 hPa | 0 mm | - | - | - |
| 1777811350 | 21.67° C | 39% | 1012.9 hPa | 0 mm | - | - | - |
| 1777810450 | 21.11° C | 39% | 1013 hPa | 0 mm | - | - | - |
| 1777809550 | 20° C | 43% | 1013 hPa | 0 mm | - | - | - |
| 1777808650 | 19.44° C | 45% | 1013.1 hPa | 0 mm | - | - | - |
| 1777807750 | 18.89° C | 44% | 1013.1 hPa | 0 mm | - | - | - |
| 1777806850 | 19.44° C | 43% | 1013.1 hPa | 0 mm | - | - | - |
| 1777805951 | 19.44° C | 44% | 1013.2 hPa | 0 mm | - | - | - |
| 1777805050 | 19.44° C | 42% | 1013.3 hPa | 0 mm | - | - | - |
| 1777804151 | 19.44° C | 42% | 1013.3 hPa | 0 mm | - | - | - |
| 1777803250 | 19.44° C | 42% | 1013.3 hPa | 0 mm | - | - | - |
| 1777802351 | 20° C | 41% | 1013.2 hPa | 0 mm | - | - | - |
| 1777801451 | 20° C | 39% | 1013.2 hPa | 0 mm | - | - | - |
| 1777800551 | 19.44° C | 41% | 1013.2 hPa | 0 mm | - | - | - |
| 1777799651 | 18.89° C | 39% | 1013.3 hPa | 0 mm | - | - | - |
* Rain latest hour (hover to see other rain measurements)
** Current wind speed in m/s (hover to see current wind gust speed)